createdAt,value
2023-05-25T06:48:38.784Z,4.50
2023-05-25T06:51:07.682Z,4.40
2023-05-25T06:53:36.980Z,3.70
2023-05-25T06:56:05.469Z,3.20
2023-05-25T06:58:33.454Z,4.60
2023-05-25T07:01:02.071Z,4.00
2023-05-25T07:03:30.085Z,3.80
2023-05-25T07:05:58.288Z,3.70
2023-05-25T07:08:29.613Z,3.70
2023-05-25T07:10:57.887Z,3.50
2023-05-25T07:13:26.264Z,3.60
2023-05-25T07:15:57.512Z,3.30
2023-05-25T07:18:26.108Z,3.30
2023-05-25T07:20:54.494Z,3.30
2023-05-25T07:23:22.770Z,2.60
2023-05-25T07:25:50.729Z,3.10
2023-05-25T07:28:21.049Z,3.20
2023-05-25T07:30:48.919Z,3.30
2023-05-25T07:33:17.307Z,3.60
2023-05-25T07:35:45.675Z,3.00
2023-05-25T07:38:14.053Z,3.70
2023-05-25T07:40:44.023Z,2.60
2023-05-25T07:43:12.347Z,3.60
2023-05-25T07:45:40.432Z,3.20
2023-05-25T07:48:09.245Z,3.40
2023-05-25T07:50:37.598Z,3.60
2023-05-25T07:53:05.931Z,3.30
2023-05-25T07:55:33.988Z,3.20
2023-05-25T07:58:02.147Z,3.40
2023-05-25T08:00:30.408Z,3.50
2023-05-25T08:02:59.280Z,4.30
2023-05-25T08:05:28.507Z,3.70
2023-05-25T08:07:56.739Z,3.50
2023-05-25T08:10:30.862Z,4.30
2023-05-25T08:12:59.271Z,4.30
2023-05-25T08:15:27.752Z,3.50
2023-05-25T08:17:56.008Z,3.60
2023-05-25T08:20:25.239Z,3.70
2023-05-25T08:22:53.849Z,2.90
2023-05-25T08:25:21.970Z,3.20
2023-05-25T08:27:50.346Z,4.00
2023-05-25T08:30:19.058Z,3.10
2023-05-25T08:32:47.478Z,3.30
2023-05-25T08:35:17.010Z,3.20
2023-05-25T08:37:46.500Z,3.70
2023-05-25T08:40:16.473Z,3.70
2023-05-25T08:42:46.092Z,2.70
2023-05-25T08:45:26.559Z,3.20
2023-05-25T08:48:10.715Z,3.40
2023-05-25T08:50:40.712Z,3.40
2023-05-25T08:53:11.382Z,3.30
2023-05-25T08:55:43.055Z,2.50
2023-05-25T08:58:23.479Z,3.70
2023-05-25T09:00:56.867Z,3.10
2023-05-25T09:03:25.193Z,3.10
2023-05-25T09:05:55.561Z,2.90
2023-05-25T09:08:24.817Z,2.50
2023-05-25T09:10:56.947Z,3.40
2023-05-25T09:13:25.970Z,3.50
2023-05-25T09:15:54.884Z,3.30
2023-05-25T09:18:23.151Z,3.70
2023-05-25T09:20:58.462Z,3.80
2023-05-25T09:23:27.038Z,2.80
2023-05-25T09:25:55.894Z,2.70
2023-05-25T09:28:27.394Z,2.80
2023-05-25T09:30:56.411Z,3.50
2023-05-25T09:33:24.595Z,3.40
2023-05-25T09:35:52.685Z,3.30
2023-05-25T09:38:21.832Z,3.70
2023-05-25T09:40:53.268Z,2.80
2023-05-25T09:43:36.556Z,2.60
2023-05-25T09:46:09.003Z,3.60
2023-05-25T09:48:37.702Z,3.10
2023-05-25T09:51:15.925Z,3.00
2023-05-25T09:53:44.856Z,2.60
2023-05-25T09:56:16.825Z,3.20
2023-05-25T09:58:45.459Z,3.20
2023-05-25T10:01:14.694Z,2.30
2023-05-25T10:04:02.801Z,2.90
2023-05-25T10:06:32.905Z,2.70
2023-05-25T10:09:01.699Z,4.50
2023-05-25T10:11:31.766Z,3.50
2023-05-25T10:14:05.605Z,3.00
2023-05-25T10:16:34.508Z,3.00
2023-05-25T10:19:31.924Z,3.10
2023-05-25T10:22:35.723Z,3.30
2023-05-25T10:25:11.547Z,2.70
2023-05-25T10:27:43.931Z,3.00
2023-05-25T10:30:14.246Z,2.70
2023-05-25T10:32:44.288Z,2.80
2023-05-25T10:35:18.895Z,2.80
2023-05-25T10:37:48.310Z,2.60
2023-05-25T10:40:16.562Z,2.60
2023-05-25T10:42:50.799Z,2.80
2023-05-25T10:45:20.107Z,3.00
2023-05-25T10:47:48.476Z,2.90
2023-05-25T10:50:28.983Z,2.50
2023-05-25T10:53:02.413Z,3.50
2023-05-25T10:55:53.442Z,2.90
2023-05-25T10:58:23.519Z,2.90
2023-05-25T11:01:07.344Z,3.10
2023-05-25T11:03:46.771Z,3.70
2023-05-25T11:06:21.460Z,3.70
2023-05-25T11:09:02.302Z,2.50
2023-05-25T11:11:49.980Z,3.10
2023-05-25T11:14:31.210Z,3.70
2023-05-25T11:17:13.591Z,3.60
2023-05-25T11:19:51.467Z,3.20
2023-05-25T11:22:32.012Z,3.30
2023-05-25T11:25:02.514Z,3.30
2023-05-25T11:27:34.781Z,3.20
2023-05-25T11:30:07.555Z,4.00
2023-05-25T11:32:59.243Z,4.50
2023-05-25T11:35:28.734Z,4.20
2023-05-25T11:37:57.939Z,3.50
2023-05-25T11:40:36.378Z,4.30
2023-05-25T11:43:07.863Z,4.10
2023-05-25T11:45:37.808Z,4.70
2023-05-25T11:48:06.177Z,5.60
2023-05-25T11:50:34.498Z,4.80
2023-05-25T11:53:21.083Z,5.40
2023-05-25T11:56:18.113Z,4.90
2023-05-25T11:58:58.921Z,5.00
2023-05-25T12:01:26.953Z,4.10
2023-05-25T12:03:58.326Z,4.40
2023-05-25T12:06:39.412Z,4.40
2023-05-25T12:09:14.995Z,3.80
2023-05-25T12:11:45.220Z,3.20
2023-05-25T12:14:14.373Z,3.30
2023-05-25T12:16:46.036Z,2.60
2023-05-25T12:19:14.305Z,2.70
2023-05-25T12:21:43.479Z,3.10
2023-05-25T12:24:14.856Z,2.80
2023-05-25T12:26:48.746Z,2.00
2023-05-25T12:29:17.361Z,1.90
2023-05-25T12:31:48.011Z,2.00
2023-05-25T12:34:20.761Z,2.30
2023-05-25T12:36:53.680Z,2.50
2023-05-25T12:39:38.648Z,2.50
2023-05-25T12:42:14.750Z,2.90
2023-05-25T12:44:45.743Z,2.50
2023-05-25T12:47:27.487Z,2.50
2023-05-25T12:50:14.064Z,3.40
2023-05-25T12:52:44.510Z,3.10
2023-05-25T12:55:26.507Z,3.40
2023-05-25T12:58:04.047Z,3.70
2023-05-25T13:00:35.781Z,3.60
2023-05-25T13:03:09.079Z,3.00
2023-05-25T13:05:38.371Z,2.80
2023-05-25T13:08:09.301Z,3.50
2023-05-25T13:10:37.808Z,3.10
2023-05-25T13:13:06.030Z,3.50
2023-05-25T13:15:34.065Z,4.10
2023-05-25T13:18:05.415Z,3.60
2023-05-25T13:20:33.670Z,3.50
2023-05-25T13:23:05.529Z,3.30
2023-05-25T13:25:53.941Z,3.90
2023-05-25T13:28:22.329Z,3.00
2023-05-25T13:31:00.966Z,2.80
2023-05-25T13:33:28.933Z,3.80
2023-05-25T13:35:58.054Z,2.90
2023-05-25T13:38:28.906Z,2.50
2023-05-25T13:40:57.668Z,2.50
2023-05-25T13:43:27.081Z,2.40
2023-05-25T13:45:56.182Z,2.50
2023-05-25T13:48:25.282Z,2.20
2023-05-25T13:50:53.164Z,2.40
2023-05-25T13:53:24.383Z,2.60
2023-05-25T13:55:52.948Z,2.70
2023-05-25T13:58:21.346Z,3.60
2023-05-25T14:00:49.610Z,3.70
2023-05-25T14:03:17.509Z,3.10
2023-05-25T14:06:01.202Z,2.30
2023-05-25T14:08:30.722Z,2.80
2023-05-25T14:11:02.585Z,2.80
2023-05-25T14:13:30.747Z,2.60
2023-05-25T14:15:58.894Z,2.50
2023-05-25T14:18:26.797Z,2.90
2023-05-25T14:20:55.271Z,3.80
2023-05-25T14:23:23.854Z,3.00
2023-05-25T14:25:54.891Z,2.90
2023-05-25T14:28:22.871Z,2.70
2023-05-25T14:30:51.043Z,3.00
2023-05-25T14:33:19.214Z,3.10
2023-05-25T14:35:47.762Z,3.10
2023-05-25T14:38:26.686Z,3.10
2023-05-25T14:40:56.535Z,2.50
2023-05-25T14:43:25.064Z,3.20
2023-05-25T14:45:53.298Z,4.00
2023-05-25T14:48:24.803Z,3.10
2023-05-25T14:50:52.916Z,2.70
2023-05-25T14:53:21.211Z,3.50
2023-05-25T14:55:49.290Z,3.00
2023-05-25T14:58:17.596Z,3.40
2023-05-25T15:00:45.926Z,2.80
2023-05-25T15:03:14.056Z,2.60
2023-05-25T15:05:42.642Z,2.90
2023-05-25T15:08:10.986Z,2.50
2023-05-25T15:10:39.033Z,2.70
2023-05-25T15:13:07.005Z,2.30
2023-05-25T15:15:35.629Z,3.50
2023-05-25T15:18:04.208Z,3.10
2023-05-25T15:20:32.515Z,3.60
2023-05-25T15:23:00.520Z,4.10
2023-05-25T15:25:35.098Z,4.10
2023-05-25T15:28:04.038Z,2.90
2023-05-25T15:30:33.807Z,3.70
2023-05-25T15:33:02.304Z,4.50
2023-05-25T15:35:33.186Z,3.60
2023-05-25T15:38:01.894Z,6.10
2023-05-25T15:40:30.342Z,5.30
2023-05-25T15:42:58.617Z,3.70
2023-05-25T15:45:27.012Z,4.00
2023-05-25T15:47:55.109Z,5.10
2023-05-25T15:50:23.245Z,4.10
2023-05-25T15:52:51.729Z,3.80
2023-05-25T15:55:20.322Z,3.10
2023-05-25T15:57:48.502Z,3.50
2023-05-25T16:00:17.380Z,4.60
2023-05-25T16:02:45.447Z,3.40
2023-05-25T16:05:13.736Z,3.60
2023-05-25T16:07:41.617Z,4.50
2023-05-25T16:10:10.312Z,3.50
2023-05-25T16:12:38.473Z,3.10
2023-05-25T16:15:07.556Z,3.50
2023-05-25T16:17:35.534Z,3.80
2023-05-25T16:20:12.373Z,3.50
2023-05-25T16:22:41.164Z,3.70
2023-05-25T16:25:10.175Z,3.60
2023-05-25T16:27:38.617Z,3.50
2023-05-25T16:30:08.614Z,4.30
2023-05-25T16:32:36.686Z,4.30
2023-05-25T16:35:05.787Z,3.70
2023-05-25T16:37:33.697Z,2.80
2023-05-25T16:40:02.213Z,4.20
2023-05-25T16:42:35.653Z,3.60
2023-05-25T16:45:04.340Z,3.60
2023-05-25T16:47:32.232Z,3.20
2023-05-25T16:50:00.535Z,2.90
2023-05-25T16:52:28.592Z,4.30
2023-05-25T16:54:58.607Z,4.30
2023-05-25T16:57:26.498Z,5.00
2023-05-25T16:59:55.876Z,4.20
2023-05-25T17:02:26.325Z,4.80
2023-05-25T17:04:54.579Z,4.90
2023-05-25T17:07:22.400Z,3.80
2023-05-25T17:09:50.318Z,3.20
2023-05-25T17:12:18.067Z,4.10
2023-05-25T17:14:46.149Z,4.30
2023-05-25T17:17:14.173Z,4.50
2023-05-25T17:19:42.076Z,3.90
2023-05-25T17:22:10.230Z,3.80
2023-05-25T17:24:38.260Z,5.70
2023-05-25T17:27:06.197Z,4.60
2023-05-25T17:29:34.575Z,3.70
2023-05-25T17:32:02.639Z,3.80
2023-05-25T17:34:30.786Z,4.40
2023-05-25T17:36:59.152Z,4.70
2023-05-25T17:39:28.521Z,4.60
2023-05-25T17:41:56.891Z,5.00
2023-05-25T17:44:26.392Z,6.10
2023-05-25T17:46:54.674Z,5.20
2023-05-25T17:49:22.803Z,4.50
2023-05-25T17:51:51.370Z,4.90
2023-05-25T17:54:24.803Z,4.70
2023-05-25T17:56:53.742Z,4.30
2023-05-25T17:59:22.034Z,5.10
2023-05-25T18:01:51.540Z,5.00
2023-05-25T18:04:20.173Z,4.70
2023-05-25T18:06:51.850Z,6.50
2023-05-25T18:09:21.145Z,5.80
2023-05-25T18:11:49.739Z,6.10
2023-05-25T18:14:18.217Z,5.20
2023-05-25T18:16:46.389Z,4.40
2023-05-25T18:19:16.241Z,5.70
2023-05-25T18:21:44.578Z,9.40
2023-05-25T18:24:12.876Z,6.00
2023-05-25T18:26:41.850Z,4.80
2023-05-25T18:29:09.794Z,5.50
2023-05-25T18:31:38.066Z,5.30
2023-05-25T18:34:06.807Z,4.40
2023-05-25T18:36:36.029Z,4.60
2023-05-25T18:39:04.976Z,5.60
2023-05-25T18:41:33.461Z,5.10
2023-05-25T18:44:01.742Z,5.30
2023-05-25T18:46:30.173Z,5.60
2023-05-25T18:48:58.422Z,5.50
2023-05-25T18:51:26.312Z,4.50
2023-05-25T18:53:54.532Z,5.70
2023-05-25T18:56:25.916Z,5.90
2023-05-25T18:58:56.833Z,6.00
2023-05-25T19:01:25.491Z,5.50
2023-05-25T19:03:56.664Z,5.40
2023-05-25T19:06:26.762Z,5.20
2023-05-25T19:08:54.873Z,5.30
2023-05-25T19:11:23.005Z,6.20
2023-05-25T19:13:55.358Z,6.30
2023-05-25T19:16:23.305Z,6.60
2023-05-25T19:18:51.238Z,5.90
2023-05-25T19:21:19.916Z,5.70
2023-05-25T19:23:48.158Z,6.60
2023-05-25T19:26:16.193Z,6.40
2023-05-25T19:28:47.453Z,4.60
2023-05-25T19:31:15.785Z,5.40
2023-05-25T19:33:43.723Z,5.10
2023-05-25T19:36:11.636Z,5.30
2023-05-25T19:38:42.173Z,5.40
2023-05-25T19:41:10.737Z,6.40
2023-05-25T19:43:39.005Z,5.00
2023-05-25T19:46:07.260Z,5.30
2023-05-25T19:48:35.966Z,5.20
2023-05-25T19:51:03.880Z,4.90
2023-05-25T19:53:32.318Z,4.50
2023-05-25T19:56:03.168Z,4.30
2023-05-25T19:58:31.022Z,5.20
2023-05-25T20:00:59.200Z,4.20
2023-05-25T20:03:27.353Z,4.70
2023-05-25T20:05:55.831Z,4.90
2023-05-25T20:08:25.020Z,5.40
2023-05-25T20:10:55.094Z,4.80
2023-05-25T20:13:23.481Z,4.40
2023-05-25T20:15:51.467Z,4.10
2023-05-25T20:18:23.125Z,4.30
2023-05-25T20:20:51.502Z,4.40
2023-05-25T20:23:19.492Z,5.20
2023-05-25T20:25:48.047Z,4.60
2023-05-25T20:28:16.383Z,4.50
2023-05-25T20:30:45.322Z,4.40
2023-05-25T20:33:13.690Z,4.60
2023-05-25T20:35:41.822Z,3.80
2023-05-25T20:38:10.031Z,3.90
2023-05-25T20:40:38.199Z,4.80
2023-05-25T20:43:05.965Z,5.20
2023-05-25T20:45:34.521Z,5.10
2023-05-25T20:48:05.603Z,5.00
2023-05-25T20:50:33.951Z,4.40
2023-05-25T20:53:02.224Z,5.20
2023-05-25T20:55:30.908Z,4.30
2023-05-25T20:58:00.417Z,4.10
2023-05-25T21:00:28.665Z,3.90
2023-05-25T21:02:57.073Z,4.90
2023-05-25T21:05:25.256Z,4.30
2023-05-25T21:07:53.338Z,4.20
2023-05-25T21:10:21.907Z,5.30
2023-05-25T21:12:50.696Z,4.10
2023-05-25T21:15:19.027Z,3.80
2023-05-25T21:17:49.434Z,4.80
2023-05-25T21:20:18.637Z,5.50
2023-05-25T21:22:46.792Z,4.60
2023-05-25T21:25:15.010Z,3.70
2023-05-25T21:27:43.108Z,4.70
2023-05-25T21:30:15.357Z,3.80
2023-05-25T21:32:43.409Z,3.60
2023-05-25T21:35:11.743Z,4.10
2023-05-25T21:37:40.269Z,4.30
2023-05-25T21:40:09.109Z,3.70
2023-05-25T21:42:37.178Z,3.50
2023-05-25T21:45:06.505Z,3.30
2023-05-25T21:47:34.717Z,3.50
2023-05-25T21:50:03.364Z,3.40
2023-05-25T21:52:31.516Z,3.10
2023-05-25T21:54:59.353Z,4.30
2023-05-25T21:57:27.553Z,4.90
2023-05-25T21:59:55.938Z,4.40
2023-05-25T22:02:24.279Z,4.60
2023-05-25T22:04:53.229Z,4.70
2023-05-25T22:07:21.580Z,5.10
2023-05-25T22:09:49.978Z,4.40
2023-05-25T22:12:19.570Z,4.60
2023-05-25T22:14:47.789Z,4.10
2023-05-25T22:17:16.852Z,4.00
2023-05-25T22:19:52.140Z,4.30
2023-05-25T22:22:27.420Z,4.70
2023-05-25T22:24:55.289Z,4.50
2023-05-25T22:27:23.253Z,4.10
2023-05-25T22:29:51.242Z,4.70
2023-05-25T22:32:19.502Z,4.60
2023-05-25T22:34:47.674Z,4.80
2023-05-25T22:37:16.977Z,4.80
2023-05-25T22:39:44.944Z,4.60
2023-05-25T22:42:13.157Z,6.00
2023-05-25T22:44:41.092Z,5.10
2023-05-25T22:47:08.946Z,5.70
2023-05-25T22:49:41.264Z,4.50
2023-05-25T22:52:12.413Z,5.30
2023-05-25T22:54:43.984Z,5.10
2023-05-25T22:57:12.313Z,4.80
2023-05-25T22:59:40.496Z,5.40
2023-05-25T23:02:08.607Z,5.20
2023-05-25T23:04:37.647Z,6.10
2023-05-25T23:07:05.607Z,5.90
2023-05-25T23:09:33.640Z,6.00
2023-05-25T23:12:01.775Z,5.60
2023-05-25T23:14:30.245Z,6.00
2023-05-25T23:16:58.310Z,5.60
2023-05-25T23:19:26.501Z,4.60
2023-05-25T23:21:55.232Z,5.00
2023-05-25T23:24:23.349Z,4.10
2023-05-25T23:26:51.417Z,4.30
2023-05-25T23:29:19.290Z,4.40
2023-05-25T23:31:47.400Z,4.20
2023-05-25T23:34:15.529Z,3.70
2023-05-25T23:36:43.638Z,4.60
2023-05-25T23:39:12.604Z,4.50
2023-05-25T23:41:40.671Z,4.90
2023-05-25T23:44:08.562Z,5.70
2023-05-25T23:46:36.482Z,4.50
2023-05-25T23:49:04.684Z,5.90
2023-05-25T23:51:32.569Z,4.60
2023-05-25T23:54:00.723Z,4.70
2023-05-25T23:56:28.702Z,5.20
2023-05-25T23:58:56.469Z,5.40
